Time;durP1;ratioP1;P1;durP2;ratioP2;P2;SDS_P1;SDS_P2;PMS_P1;PMS_P2;Temp;Humidity;BMP_temperature;BMP_pressure;BME280_temperature;BME280_humidity;BME280_pressure;Samples;Min_cycle;Max_cycle;Signal;HPM_P1;HPM_P2
2020/12/04 00:01:37;;;;;;;6.17;5.03;;;;;;;;;;5075202;28;20504;-57
2020/12/04 00:04:04;;;;;;;5.43;4.93;;;;;;;;;;5092671;28;20650;-56
2020/12/04 00:06:30;;;;;;;5.93;5.27;;;;;;;;;;5080558;28;20176;-57
2020/12/04 00:08:56;;;;;;;5.27;4.77;;;;;;;;;;5088014;28;20418;-56
2020/12/04 00:11:22;;;;;;;5.73;5.13;;;;;;;;;;5076089;28;20417;-59
2020/12/04 00:13:48;;;;;;;7.50;5.50;;;;;;;;;;5092469;28;20463;-56
2020/12/04 00:16:14;;;;;;;7.03;5.30;;;;;;;;;;5077629;28;20188;-56
2020/12/04 00:18:40;;;;;;;5.37;4.83;;;;;;;;;;5073156;28;20243;-56
2020/12/04 00:21:06;;;;;;;4.73;4.33;;;;;;;;;;5072321;28;20208;-55
2020/12/04 00:23:32;;;;;;;5.60;4.43;;;;;;;;;;5072031;28;20180;-59
2020/12/04 00:25:58;;;;;;;5.10;4.60;;;;;;;;;;5071430;28;20185;-58
2020/12/04 00:28:24;;;;;;;4.97;4.43;;;;;;;;;;5072069;28;20246;-57
2020/12/04 00:30:50;;;;;;;5.60;4.87;;;;;;;;;;5071836;28;20557;-57
2020/12/04 00:33:16;;;;;;;4.70;4.17;;;;;;;;;;5071952;28;20222;-56
2020/12/04 00:35:42;;;;;;;5.37;4.87;;;;;;;;;;5071497;28;20415;-56
2020/12/04 00:38:08;;;;;;;5.23;4.73;;;;;;;;;;5071887;28;20430;-55
2020/12/04 00:40:34;;;;;;;6.30;5.33;;;;;;;;;;5071558;28;20620;-56
2020/12/04 00:43:00;;;;;;;5.77;4.97;;;;;;;;;;5082646;28;20177;-56
2020/12/04 00:45:26;;;;;;;4.20;3.80;;;;;;;;;;5072497;28;20262;-57
2020/12/04 00:47:52;;;;;;;5.37;4.20;;;;;;;;;;5079623;28;20255;-57
2020/12/04 00:50:18;;;;;;;5.00;4.50;;;;;;;;;;5087172;28;20177;-57
2020/12/04 00:52:44;;;;;;;5.83;5.13;;;;;;;;;;5071419;28;20410;-55
2020/12/04 00:55:10;;;;;;;5.60;5.00;;;;;;;;;;5071489;28;20421;-56
2020/12/04 00:57:36;;;;;;;6.03;5.40;;;;;;;;;;5072610;28;20185;-56
2020/12/04 01:00:04;;;;;;;5.60;4.60;;;;;;;;;;5074137;28;20618;-58
2020/12/04 01:02:30;;;;;;;5.40;4.77;;;;;;;;;;5082168;28;20438;-56
2020/12/04 01:04:56;;;;;;;6.30;4.90;;;;;;;;;;5107452;28;20907;-56
2020/12/04 01:07:23;;;;;;;6.37;5.33;;;;;;;;;;5090774;28;20546;-57
2020/12/04 01:09:49;;;;;;;5.93;4.97;;;;;;;;;;5071598;28;20725;-57
2020/12/04 01:12:15;;;;;;;5.87;4.90;;;;;;;;;;5071241;28;20210;-57
2020/12/04 01:14:41;;;;;;;5.53;4.97;;;;;;;;;;5073684;28;20237;-57
2020/12/04 01:17:07;;;;;;;6.73;4.90;;;;;;;;;;5078453;28;20431;-55
2020/12/04 01:19:33;;;;;;;5.23;4.73;;;;;;;;;;5072347;28;20249;-56
2020/12/04 01:21:59;;;;;;;4.90;4.30;;;;;;;;;;5075390;28;20912;-56
2020/12/04 01:24:25;;;;;;;6.20;4.90;;;;;;;;;;5071382;28;20461;-56
2020/12/04 01:26:51;;;;;;;5.93;5.10;;;;;;;;;;5076523;28;20425;-56
2020/12/04 01:29:17;;;;;;;5.23;4.73;;;;;;;;;;5082250;28;20422;-56
2020/12/04 01:31:47;;;;;;;6.73;5.20;;;;;;;;;;5071000;28;20714;-57
2020/12/04 01:34:13;;;;;;;5.33;4.60;;;;;;;;;;5071738;28;20922;-57
2020/12/04 01:36:39;;;;;;;5.07;4.00;;;;;;;;;;5074443;28;20418;-56
2020/12/04 01:39:05;;;;;;;5.27;4.77;;;;;;;;;;5069840;28;20498;-56
2020/12/04 01:41:35;;;;;;;5.30;4.80;;;;;;;;;;5071221;28;20521;-56
2020/12/04 01:44:01;;;;;;;4.87;4.37;;;;;;;;;;5070961;28;20503;-56
2020/12/04 01:46:28;;;;;;;6.43;4.67;;;;;;;;;;5072568;28;20433;-56
2020/12/04 01:48:54;;;;;;;6.30;4.70;;;;;;;;;;5077902;28;20943;-56
2020/12/04 01:51:20;;;;;;;5.67;5.07;;;;;;;;;;5081862;28;20512;-56
2020/12/04 01:53:46;;;;;;;5.80;4.40;;;;;;;;;;5081872;28;20464;-56
2020/12/04 01:56:12;;;;;;;4.60;3.83;;;;;;;;;;5086971;28;20426;-58
2020/12/04 01:58:38;;;;;;;6.30;4.10;;;;;;;;;;5090318;28;20426;-58
2020/12/04 02:01:09;;;;;;;4.87;4.47;;;;;;;;;;5090583;28;20462;-55
2020/12/04 02:03:35;;;;;;;6.17;4.33;;;;;;;;;;5080838;28;20427;-56
2020/12/04 02:06:03;;;;;;;5.33;4.83;;;;;;;;;;5070781;28;20425;-57
2020/12/04 02:08:46;;;;;;;8.80;4.43;;;;;;;;;;5071198;28;20189;-56
2020/12/04 02:11:20;;;;;;;5.30;4.50;;;;;;;;;;5070827;28;20190;-57
2020/12/04 02:13:48;;;;;;;6.67;4.83;;;;;;;;;;5070724;28;20395;-55
2020/12/04 02:16:18;;;;;;;6.67;4.40;;;;;;;;;;5071562;28;20446;-56
2020/12/04 02:18:44;;;;;;;4.77;4.27;;;;;;;;;;5073893;28;20464;-56
2020/12/04 02:21:11;;;;;;;5.33;4.50;;;;;;;;;;5070447;28;20410;-59
2020/12/04 02:23:38;;;;;;;4.70;4.07;;;;;;;;;;5072669;28;20426;-56
2020/12/04 02:26:04;;;;;;;5.37;4.47;;;;;;;;;;5084149;28;20414;-57
2020/12/04 02:28:31;;;;;;;6.60;4.93;;;;;;;;;;5070495;28;20407;-56
2020/12/04 02:30:57;;;;;;;4.27;3.87;;;;;;;;;;5070341;28;20427;-56
2020/12/04 02:33:23;;;;;;;5.43;4.40;;;;;;;;;;5070192;28;20430;-57
2020/12/04 02:35:49;;;;;;;4.77;4.20;;;;;;;;;;5070574;28;20395;-57
2020/12/04 02:38:15;;;;;;;5.07;4.40;;;;;;;;;;5077923;28;20439;-56
2020/12/04 02:40:41;;;;;;;5.00;4.07;;;;;;;;;;5070626;28;20399;-56
2020/12/04 02:43:07;;;;;;;5.30;4.20;;;;;;;;;;5070374;28;20769;-56
2020/12/04 02:45:33;;;;;;;4.63;3.97;;;;;;;;;;5070658;28;20196;-57
2020/12/04 02:47:59;;;;;;;6.33;4.57;;;;;;;;;;5072298;28;20233;-57
2020/12/04 02:50:25;;;;;;;4.83;4.30;;;;;;;;;;5079048;28;20425;-56
2020/12/04 02:52:52;;;;;;;4.93;4.30;;;;;;;;;;5094080;28;20574;-56
2020/12/04 02:55:18;;;;;;;4.57;3.97;;;;;;;;;;5093998;28;20483;-56
2020/12/04 02:57:44;;;;;;;4.73;4.23;;;;;;;;;;5083187;28;20434;-56
2020/12/04 03:00:10;;;;;;;4.63;4.07;;;;;;;;;;5088457;28;20429;-56
2020/12/04 03:02:36;;;;;;;4.47;4.07;;;;;;;;;;5092138;28;20618;-56
2020/12/04 03:05:02;;;;;;;4.47;4.07;;;;;;;;;;5089210;28;20207;-57
2020/12/04 03:07:28;;;;;;;5.13;4.07;;;;;;;;;;5091750;28;20180;-56
2020/12/04 03:09:54;;;;;;;4.73;4.27;;;;;;;;;;5072227;28;20827;-56
2020/12/04 03:12:20;;;;;;;5.07;4.37;;;;;;;;;;5084126;28;20199;-56
2020/12/04 03:14:46;;;;;;;4.23;3.77;;;;;;;;;;5089935;28;20180;-56
2020/12/04 03:17:13;;;;;;;3.97;3.57;;;;;;;;;;5072171;28;20271;-56
2020/12/04 03:19:39;;;;;;;5.83;3.93;;;;;;;;;;5089723;28;20441;-58
2020/12/04 03:22:05;;;;;;;3.97;3.53;;;;;;;;;;5090942;28;20920;-57
2020/12/04 03:24:35;;;;;;;4.83;4.33;;;;;;;;;;5092493;28;20196;-57
2020/12/04 03:27:01;;;;;;;3.50;3.20;;;;;;;;;;5073011;28;20430;-57
2020/12/04 03:29:27;;;;;;;3.93;3.60;;;;;;;;;;5073238;28;20395;-57
2020/12/04 03:31:53;;;;;;;4.10;3.70;;;;;;;;;;5073108;28;20805;-56
2020/12/04 03:34:19;;;;;;;4.70;3.73;;;;;;;;;;5073727;28;20437;-57
2020/12/04 03:36:45;;;;;;;4.57;3.50;;;;;;;;;;5072546;28;20423;-57
2020/12/04 03:39:11;;;;;;;4.33;3.57;;;;;;;;;;5073939;28;20188;-57
2020/12/04 03:41:37;;;;;;;3.77;3.37;;;;;;;;;;5072754;28;20422;-57
2020/12/04 03:44:03;;;;;;;4.20;3.80;;;;;;;;;;5072814;28;20945;-57
2020/12/04 03:46:29;;;;;;;4.10;3.63;;;;;;;;;;5073002;28;20226;-56
2020/12/04 03:48:55;;;;;;;3.97;3.50;;;;;;;;;;5074184;28;20426;-56
2020/12/04 03:51:21;;;;;;;3.60;3.30;;;;;;;;;;5089257;28;20530;-57
2020/12/04 03:53:47;;;;;;;4.13;3.70;;;;;;;;;;5072718;28;20414;-56
2020/12/04 03:56:13;;;;;;;4.17;3.70;;;;;;;;;;5072367;28;20222;-57
2020/12/04 03:58:39;;;;;;;4.47;3.37;;;;;;;;;;5071294;28;20441;-56
2020/12/04 04:01:05;;;;;;;3.50;3.20;;;;;;;;;;5091502;28;20461;-57
2020/12/04 04:03:31;;;;;;;3.67;3.20;;;;;;;;;;5077886;28;20184;-56
2020/12/04 04:05:57;;;;;;;4.80;3.50;;;;;;;;;;5072441;28;20218;-56
2020/12/04 04:08:23;;;;;;;3.87;3.50;;;;;;;;;;5082196;28;20434;-56
2020/12/04 04:10:49;;;;;;;4.40;3.63;;;;;;;;;;5072499;28;20176;-56
2020/12/04 04:13:15;;;;;;;3.83;3.43;;;;;;;;;;5072477;28;20450;-56
2020/12/04 04:15:41;;;;;;;4.47;3.70;;;;;;;;;;5092637;28;20414;-56
2020/12/04 04:18:07;;;;;;;4.40;3.30;;;;;;;;;;5083111;28;20426;-56
2020/12/04 04:20:33;;;;;;;3.73;3.43;;;;;;;;;;5071908;28;20176;-56
2020/12/04 04:22:59;;;;;;;3.87;3.47;;;;;;;;;;5077659;28;20599;-56
2020/12/04 04:25:25;;;;;;;3.60;3.30;;;;;;;;;;5088678;28;20461;-57
2020/12/04 04:27:51;;;;;;;3.50;3.07;;;;;;;;;;5087118;28;20241;-56
2020/12/04 04:30:17;;;;;;;3.20;2.90;;;;;;;;;;5071919;28;20723;-56
2020/12/04 04:32:43;;;;;;;4.07;3.63;;;;;;;;;;5071881;28;20492;-57
2020/12/04 04:35:10;;;;;;;3.60;3.30;;;;;;;;;;5083161;28;20517;-56
2020/12/04 04:37:36;;;;;;;3.47;3.17;;;;;;;;;;5080572;28;20216;-56
2020/12/04 04:40:03;;;;;;;3.70;3.40;;;;;;;;;;5071769;28;20419;-56
2020/12/04 04:42:29;;;;;;;3.77;3.23;;;;;;;;;;5070580;28;20422;-56
2020/12/04 04:44:56;;;;;;;4.03;3.63;;;;;;;;;;5071736;28;20516;-57
2020/12/04 04:47:24;;;;;;;3.67;3.30;;;;;;;;;;5082624;28;20176;-56
2020/12/04 04:49:52;;;;;;;3.53;3.23;;;;;;;;;;5091944;28;20410;-56
2020/12/04 04:52:18;;;;;;;3.27;2.80;;;;;;;;;;5090226;28;20494;-57
2020/12/04 04:54:45;;;;;;;3.70;3.37;;;;;;;;;;5071958;28;20419;-56
2020/12/04 04:57:15;;;;;;;3.97;3.57;;;;;;;;;;5071178;28;20761;-56
2020/12/04 04:59:41;;;;;;;3.13;2.83;;;;;;;;;;5084860;28;20459;-56
2020/12/04 05:02:14;;;;;;;3.57;3.27;;;;;;;;;;5071131;28;20803;-56
2020/12/04 05:05:06;;;;;;;4.37;3.17;;;;;;;;;;5071198;28;20468;-56
2020/12/04 05:07:33;;;;;;;3.80;3.40;;;;;;;;;;5070820;28;20446;-57
2020/12/04 05:10:09;;;;;;;3.50;3.07;;;;;;;;;;5071819;28;20869;-56
2020/12/04 05:12:35;;;;;;;4.63;3.40;;;;;;;;;;5086541;28;20939;-56
2020/12/04 05:15:18;;;;;;;3.07;2.77;;;;;;;;;;5079106;28;20444;-56
2020/12/04 05:17:59;;;;;;;3.57;3.00;;;;;;;;;;5086205;28;20864;-57
2020/12/04 05:20:25;;;;;;;3.93;3.30;;;;;;;;;;5083263;28;20759;-56
2020/12/04 05:23:04;;;;;;;3.53;3.23;;;;;;;;;;5110329;28;20435;-56
2020/12/04 05:25:40;;;;;;;3.50;3.03;;;;;;;;;;5102007;28;20461;-56
2020/12/04 05:28:14;;;;;;;3.63;3.20;;;;;;;;;;5079730;28;20437;-57
2020/12/04 05:30:41;;;;;;;3.60;3.30;;;;;;;;;;5073640;28;20439;-56
2020/12/04 05:33:07;;;;;;;5.30;3.27;;;;;;;;;;5072616;28;20411;-55
2020/12/04 05:35:34;;;;;;;3.80;3.13;;;;;;;;;;5081405;28;20433;-56
2020/12/04 05:38:16;;;;;;;4.57;3.07;;;;;;;;;;5076785;28;20457;-56
2020/12/04 05:40:43;;;;;;;3.40;3.10;;;;;;;;;;5071754;28;20238;-57
2020/12/04 05:43:10;;;;;;;4.10;3.27;;;;;;;;;;5074859;28;20947;-55
2020/12/04 05:45:36;;;;;;;3.33;2.90;;;;;;;;;;5076548;28;20470;-58
2020/12/04 05:48:02;;;;;;;2.87;2.60;;;;;;;;;;5070995;28;20429;-58
2020/12/04 05:50:28;;;;;;;3.47;3.17;;;;;;;;;;5084576;28;20759;-56
2020/12/04 05:52:54;;;;;;;3.60;2.90;;;;;;;;;;5091053;28;20416;-56
2020/12/04 05:55:20;;;;;;;4.97;3.20;;;;;;;;;;5086229;28;20426;-55
2020/12/04 05:57:53;;;;;;;4.23;3.17;;;;;;;;;;5080851;28;20788;-57
2020/12/04 06:00:20;;;;;;;3.30;3.00;;;;;;;;;;5083174;28;20470;-55
2020/12/04 06:02:46;;;;;;;2.90;2.60;;;;;;;;;;5069319;28;20433;-59
2020/12/04 06:05:13;;;;;;;5.73;2.77;;;;;;;;;;5077836;28;21108;-56
2020/12/04 06:07:40;;;;;;;4.60;3.30;;;;;;;;;;5071295;28;20414;-56
2020/12/04 06:10:10;;;;;;;4.37;2.97;;;;;;;;;;5080342;28;20831;-59
2020/12/04 06:12:36;;;;;;;3.87;3.07;;;;;;;;;;5078227;28;20422;-56
2020/12/04 06:15:21;;;;;;;2.83;2.53;;;;;;;;;;5090744;28;20463;-56
2020/12/04 06:17:47;;;;;;;3.03;2.70;;;;;;;;;;5089925;28;20406;-57
2020/12/04 06:20:17;;;;;;;2.90;2.70;;;;;;;;;;5089077;28;20421;-56
2020/12/04 06:23:03;;;;;;;3.10;2.80;;;;;;;;;;5089960;28;20417;-56
2020/12/04 06:25:49;;;;;;;2.60;2.40;;;;;;;;;;5093076;28;20447;-56
2020/12/04 06:28:16;;;;;;;2.80;2.50;;;;;;;;;;5076819;28;20414;-57
2020/12/04 06:30:56;;;;;;;2.43;2.20;;;;;;;;;;5077171;28;20718;-56
2020/12/04 06:33:32;;;;;;;2.30;2.10;;;;;;;;;;5087332;28;20498;-56
2020/12/04 06:35:58;;;;;;;3.63;2.70;;;;;;;;;;5085835;28;20411;-56
2020/12/04 06:38:34;;;;;;;2.30;2.10;;;;;;;;;;5084900;28;20429;-56
2020/12/04 06:41:19;;;;;;;3.00;2.20;;;;;;;;;;5083273;28;20868;-57
2020/12/04 06:43:45;;;;;;;2.30;2.10;;;;;;;;;;5073871;28;20892;-58
2020/12/04 06:46:28;;;;;;;2.40;2.20;;;;;;;;;;5073213;28;20176;-58
2020/12/04 06:49:21;;;;;;;2.57;1.87;;;;;;;;;;5073791;28;20475;-56
2020/12/04 06:51:55;;;;;;;2.23;1.90;;;;;;;;;;5074090;28;20395;-56
2020/12/04 06:54:21;;;;;;;3.37;2.60;;;;;;;;;;5073461;28;20423;-56
2020/12/04 06:56:47;;;;;;;1.93;1.73;;;;;;;;;;5080207;28;20454;-57
2020/12/04 06:59:13;;;;;;;5.27;2.30;;;;;;;;;;5093104;28;20210;-57
2020/12/04 07:01:39;;;;;;;2.73;2.17;;;;;;;;;;5093432;28;20258;-57
2020/12/04 07:04:05;;;;;;;2.20;1.80;;;;;;;;;;5082161;28;20650;-57
2020/12/04 07:06:31;;;;;;;2.27;2.07;;;;;;;;;;5073510;28;20415;-56
2020/12/04 07:09:01;;;;;;;2.27;2.07;;;;;;;;;;5074134;28;20560;-57
2020/12/04 07:11:27;;;;;;;1.97;1.80;;;;;;;;;;5073545;28;20426;-56
2020/12/04 07:13:53;;;;;;;2.30;2.10;;;;;;;;;;5073418;28;20414;-56
2020/12/04 07:16:19;;;;;;;2.20;1.90;;;;;;;;;;5073917;28;20415;-57
2020/12/04 07:18:53;;;;;;;1.90;1.70;;;;;;;;;;5076432;28;21169;-56
2020/12/04 07:21:22;;;;;;;1.80;1.70;;;;;;;;;;5071637;28;20413;-57
2020/12/04 07:23:49;;;;;;;1.80;1.70;;;;;;;;;;5073127;28;20446;-57
2020/12/04 07:26:16;;;;;;;2.13;1.93;;;;;;;;;;5072903;28;20407;-58
2020/12/04 07:28:44;;;;;;;1.87;1.43;;;;;;;;;;5093189;28;20414;-57
2020/12/04 07:31:28;;;;;;;1.67;1.57;;;;;;;;;;5093106;28;20425;-56
2020/12/04 07:33:56;;;;;;;2.20;1.77;;;;;;;;;;5088946;28;20418;-56
2020/12/04 07:36:22;;;;;;;2.77;2.13;;;;;;;;;;5072619;28;20415;-58
2020/12/04 07:38:52;;;;;;;2.57;1.90;;;;;;;;;;5073783;28;20786;-56
2020/12/04 07:41:38;;;;;;;2.30;1.80;;;;;;;;;;5072888;28;21012;-56
2020/12/04 07:44:05;;;;;;;2.00;1.67;;;;;;;;;;5092932;28;20457;-56
2020/12/04 07:46:32;;;;;;;1.80;1.47;;;;;;;;;;5092604;28;20405;-56
2020/12/04 07:49:07;;;;;;;2.53;2.13;;;;;;;;;;5092579;28;20425;-57
2020/12/04 07:51:35;;;;;;;1.50;1.40;;;;;;;;;;5091719;28;20171;-56
2020/12/04 07:54:03;;;;;;;1.60;1.50;;;;;;;;;;5091410;28;20422;-55
2020/12/04 07:56:30;;;;;;;1.83;1.70;;;;;;;;;;5091589;28;20398;-56
2020/12/04 07:59:04;;;;;;;2.43;1.40;;;;;;;;;;5092677;28;20409;-56
2020/12/04 08:01:31;;;;;;;1.20;1.10;;;;;;;;;;5089600;28;20957;-56
2020/12/04 08:03:57;;;;;;;1.83;1.63;;;;;;;;;;5074849;28;20825;-56
2020/12/04 08:06:27;;;;;;;1.60;1.43;;;;;;;;;;5086064;28;20437;-56
2020/12/04 08:09:25;;;;;;;1.53;1.40;;;;;;;;;;5072157;28;20415;-56
2020/12/04 08:11:55;;;;;;;1.70;1.60;;;;;;;;;;5049113;28;20230;-56
2020/12/04 08:14:26;;;;;;;1.50;1.40;;;;;;;;;;5071680;28;20403;-56
2020/12/04 08:16:56;;;;;;;1.50;1.40;;;;;;;;;;5072161;28;20740;-57
2020/12/04 08:19:32;;;;;;;1.30;1.20;;;;;;;;;;5072136;28;20415;-57
2020/12/04 08:22:05;;;;;;;2.00;1.57;;;;;;;;;;5075438;28;20440;-57
2020/12/04 08:24:39;;;;;;;1.50;1.40;;;;;;;;;;5090213;28;20449;-56
2020/12/04 08:27:06;;;;;;;1.60;1.50;;;;;;;;;;5084860;28;20419;-57
2020/12/04 08:29:33;;;;;;;2.47;1.67;;;;;;;;;;5071740;28;20438;-57
2020/12/04 08:32:10;;;;;;;1.40;1.30;;;;;;;;;;5075123;28;21288;-56
2020/12/04 08:34:36;;;;;;;1.30;1.17;;;;;;;;;;5091313;28;20429;-58
2020/12/04 08:37:04;;;;;;;2.10;1.40;;;;;;;;;;5091948;28;20172;-56
2020/12/04 08:39:49;;;;;;;1.33;1.23;;;;;;;;;;5091870;28;20229;-56
2020/12/04 08:42:16;;;;;;;2.13;1.27;;;;;;;;;;5081972;28;20427;-56
2020/12/04 08:44:58;;;;;;;1.73;1.40;;;;;;;;;;5071000;28;20454;-56
2020/12/04 08:47:35;;;;;;;1.60;1.43;;;;;;;;;;5070847;28;20180;-56
2020/12/04 08:50:06;;;;;;;1.23;1.13;;;;;;;;;;5071426;28;20290;-59
2020/12/04 08:52:35;;;;;;;1.50;1.40;;;;;;;;;;5079631;28;20176;-56
2020/12/04 08:55:08;;;;;;;1.30;1.10;;;;;;;;;;5090244;28;20230;-57
2020/12/04 08:57:34;;;;;;;1.50;1.40;;;;;;;;;;5080821;28;20265;-56
2020/12/04 09:00:00;;;;;;;1.10;1.00;;;;;;;;;;5071395;28;20176;-56
2020/12/04 09:02:27;;;;;;;1.17;1.07;;;;;;;;;;5078629;28;20623;-56
2020/12/04 09:04:54;;;;;;;1.20;0.93;;;;;;;;;;5076520;28;20200;-57
2020/12/04 09:07:20;;;;;;;1.53;1.43;;;;;;;;;;5071011;28;20250;-56
2020/12/04 09:09:46;;;;;;;1.57;1.20;;;;;;;;;;5079516;28;20238;-55
2020/12/04 09:12:12;;;;;;;1.43;1.03;;;;;;;;;;5083726;28;20177;-56
2020/12/04 09:14:38;;;;;;;2.43;0.90;;;;;;;;;;5070824;28;20188;-56
2020/12/04 09:17:04;;;;;;;1.20;1.10;;;;;;;;;;5070832;28;20176;-57
2020/12/04 09:19:30;;;;;;;0.80;0.80;;;;;;;;;;5070705;28;20239;-56
2020/12/04 09:21:56;;;;;;;1.17;1.07;;;;;;;;;;5070971;28;20265;-56
2020/12/04 09:24:22;;;;;;;1.60;1.10;;;;;;;;;;5070649;28;20341;-56
2020/12/04 09:26:48;;;;;;;1.10;1.00;;;;;;;;;;5070803;28;20575;-55
2020/12/04 09:29:14;;;;;;;1.10;1.00;;;;;;;;;;5070785;28;20184;-56
2020/12/04 09:31:40;;;;;;;1.80;1.20;;;;;;;;;;5069694;28;20211;-57
2020/12/04 09:34:06;;;;;;;1.10;1.00;;;;;;;;;;5070488;28;20635;-55
2020/12/04 09:36:32;;;;;;;1.23;1.00;;;;;;;;;;5070841;28;20212;-55
2020/12/04 09:38:58;;;;;;;1.20;1.10;;;;;;;;;;5072629;28;20172;-56
2020/12/04 09:41:24;;;;;;;0.90;0.90;;;;;;;;;;5089885;28;20528;-56
2020/12/04 09:43:50;;;;;;;0.87;0.87;;;;;;;;;;5091073;28;20406;-56
2020/12/04 09:46:16;;;;;;;1.20;1.10;;;;;;;;;;5090797;28;20823;-56
2020/12/04 09:48:42;;;;;;;2.67;1.40;;;;;;;;;;5071235;28;20255;-56
2020/12/04 09:51:08;;;;;;;0.80;0.80;;;;;;;;;;5070610;28;20165;-56
2020/12/04 09:53:34;;;;;;;0.97;0.97;;;;;;;;;;5070692;28;20386;-56
2020/12/04 09:56:00;;;;;;;0.93;0.90;;;;;;;;;;5070570;28;20410;-56
2020/12/04 09:58:26;;;;;;;3.20;1.13;;;;;;;;;;5088125;28;20239;-56
2020/12/04 10:00:52;;;;;;;1.00;0.90;;;;;;;;;;5089894;28;20219;-56
2020/12/04 10:03:18;;;;;;;1.13;1.03;;;;;;;;;;5074419;28;20172;-56
2020/12/04 10:05:44;;;;;;;1.17;1.07;;;;;;;;;;5074639;28;20435;-56
2020/12/04 10:08:10;;;;;;;1.10;1.00;;;;;;;;;;5078223;28;20168;-55
2020/12/04 10:10:36;;;;;;;1.03;0.90;;;;;;;;;;5074758;28;20165;-55
2020/12/04 10:13:02;;;;;;;1.50;1.10;;;;;;;;;;5074509;28;20515;-56
2020/12/04 10:15:28;;;;;;;1.00;0.90;;;;;;;;;;5074919;28;20181;-56
2020/12/04 10:17:54;;;;;;;1.00;0.90;;;;;;;;;;5094374;28;20231;-56
2020/12/04 10:20:20;;;;;;;2.47;1.10;;;;;;;;;;5094712;28;20173;-56
2020/12/04 10:22:46;;;;;;;1.33;1.23;;;;;;;;;;5094700;28;20184;-56
2020/12/04 10:25:12;;;;;;;1.27;0.90;;;;;;;;;;5094499;28;20654;-56
2020/12/04 10:27:39;;;;;;;1.10;1.00;;;;;;;;;;5087559;28;20176;-56
2020/12/04 10:30:05;;;;;;;0.90;0.90;;;;;;;;;;5079869;28;20188;-60
2020/12/04 10:32:30;;;;;;;1.53;1.07;;;;;;;;;;5074002;28;20193;-56
2020/12/04 10:34:57;;;;;;;2.13;1.00;;;;;;;;;;5075382;28;20176;-56
2020/12/04 10:37:24;;;;;;;1.30;1.10;;;;;;;;;;5077773;28;20253;-57
2020/12/04 10:39:50;;;;;;;0.70;0.70;;;;;;;;;;5094431;28;20709;-58
2020/12/04 10:42:16;;;;;;;1.07;0.97;;;;;;;;;;5084474;28;20208;-56
2020/12/04 10:44:42;;;;;;;1.13;0.80;;;;;;;;;;5073811;28;20281;-56
2020/12/04 10:47:08;;;;;;;4.87;1.07;;;;;;;;;;5075252;28;20176;-56
2020/12/04 10:49:34;;;;;;;0.80;0.80;;;;;;;;;;5076042;28;20191;-56
2020/12/04 10:52:00;;;;;;;1.00;0.90;;;;;;;;;;5075631;28;20168;-57
2020/12/04 10:54:26;;;;;;;1.43;0.83;;;;;;;;;;5074142;28;20188;-56
2020/12/04 10:56:55;;;;;;;2.03;0.90;;;;;;;;;;5079551;28;20190;-57
2020/12/04 10:59:22;;;;;;;0.70;0.70;;;;;;;;;;5094034;28;20183;-56
2020/12/04 11:02:05;;;;;;;1.37;0.67;;;;;;;;;;5093093;28;20228;-56
2020/12/04 11:07:15;;;;;;;1.20;0.80;;;;;;;;;;5094674;28;20178;-56
2020/12/04 11:09:41;;;;;;;2.77;1.97;;;;;;;;;;5092398;28;20176;-56
2020/12/04 11:12:08;;;;;;;2.03;1.40;;;;;;;;;;5082081;28;20229;-56
2020/12/04 11:14:34;;;;;;;2.23;1.00;;;;;;;;;;5093937;28;20182;-56
2020/12/04 11:17:00;;;;;;;1.27;0.90;;;;;;;;;;5094932;28;20164;-57
2020/12/04 11:19:26;;;;;;;1.13;1.03;;;;;;;;;;5091594;28;20674;-56
2020/12/04 11:21:52;;;;;;;1.30;1.20;;;;;;;;;;5075013;28;20176;-56
2020/12/04 11:24:18;;;;;;;0.93;0.93;;;;;;;;;;5074802;28;20249;-56
2020/12/04 11:26:44;;;;;;;0.90;0.90;;;;;;;;;;5076347;28;20179;-56
2020/12/04 11:29:17;;;;;;;1.00;0.90;;;;;;;;;;5074727;28;20169;-56
2020/12/04 11:31:43;;;;;;;1.33;0.90;;;;;;;;;;5081441;28;20579;-57
2020/12/04 11:34:09;;;;;;;1.80;1.30;;;;;;;;;;5094920;28;20172;-56
2020/12/04 11:36:35;;;;;;;2.37;1.20;;;;;;;;;;5094279;28;20184;-56
2020/12/04 11:39:01;;;;;;;2.20;0.90;;;;;;;;;;5091516;28;20638;-56
2020/12/04 11:41:31;;;;;;;1.30;1.20;;;;;;;;;;5093079;28;20283;-56
2020/12/04 11:43:57;;;;;;;1.63;1.00;;;;;;;;;;5094701;28;20224;-56
2020/12/04 11:46:23;;;;;;;1.47;1.10;;;;;;;;;;5087470;28;20191;-57
2020/12/04 11:48:49;;;;;;;1.07;0.97;;;;;;;;;;5081349;28;20188;-56
2020/12/04 11:51:15;;;;;;;1.20;1.10;;;;;;;;;;5075397;28;20188;-57
2020/12/04 11:53:41;;;;;;;1.10;0.80;;;;;;;;;;5073037;28;20179;-56
2020/12/04 11:56:07;;;;;;;0.87;0.87;;;;;;;;;;5089290;28;20585;-57
2020/12/04 11:58:33;;;;;;;0.90;0.80;;;;;;;;;;5087852;28;20244;-57
2020/12/04 12:00:59;;;;;;;1.83;1.20;;;;;;;;;;5088509;28;20230;-56
2020/12/04 12:03:25;;;;;;;1.30;1.20;;;;;;;;;;5075133;28;20192;-57
2020/12/04 12:05:58;;;;;;;1.80;1.20;;;;;;;;;;5074156;28;20196;-56
2020/12/04 12:08:24;;;;;;;1.23;1.13;;;;;;;;;;5078348;28;20177;-56
2020/12/04 12:10:50;;;;;;;2.23;1.10;;;;;;;;;;5077732;28;20168;-56
2020/12/04 12:13:16;;;;;;;2.07;0.83;;;;;;;;;;5075105;28;20188;-57
2020/12/04 12:15:42;;;;;;;1.80;1.27;;;;;;;;;;5084860;28;20222;-56
2020/12/04 12:18:08;;;;;;;2.20;1.00;;;;;;;;;;5086445;28;20544;-59
2020/12/04 12:20:34;;;;;;;3.07;1.40;;;;;;;;;;5084020;28;20176;-57
2020/12/04 12:23:00;;;;;;;3.20;1.40;;;;;;;;;;5098753;28;20180;-57
2020/12/04 12:25:26;;;;;;;1.30;1.10;;;;;;;;;;5096761;28;20210;-56
2020/12/04 12:27:52;;;;;;;0.90;0.90;;;;;;;;;;5087734;28;20834;-57
2020/12/04 12:30:18;;;;;;;2.83;1.30;;;;;;;;;;5088852;28;20210;-56
2020/12/04 12:32:44;;;;;;;1.27;1.17;;;;;;;;;;5085962;28;20258;-57
2020/12/04 12:35:14;;;;;;;1.23;1.10;;;;;;;;;;5088493;28;20176;-56
2020/12/04 12:37:44;;;;;;;1.23;1.03;;;;;;;;;;5092503;28;20206;-56
2020/12/04 12:40:10;;;;;;;1.23;1.10;;;;;;;;;;5083787;28;20188;-57
2020/12/04 12:42:37;;;;;;;1.73;1.03;;;;;;;;;;5088675;28;20192;-59
2020/12/04 12:45:04;;;;;;;2.00;1.07;;;;;;;;;;5073102;28;20204;-57
2020/12/04 12:47:31;;;;;;;0.83;0.80;;;;;;;;;;5085579;28;20186;-57
2020/12/04 12:49:57;;;;;;;1.30;0.90;;;;;;;;;;5085489;28;20183;-57
2020/12/04 12:52:23;;;;;;;1.33;1.23;;;;;;;;;;5084508;28;20187;-57
2020/12/04 12:54:49;;;;;;;1.30;1.07;;;;;;;;;;5072308;28;20180;-56
2020/12/04 12:57:15;;;;;;;1.10;1.00;;;;;;;;;;5078516;28;20183;-56
2020/12/04 12:59:41;;;;;;;0.70;0.70;;;;;;;;;;5090890;28;20179;-56
2020/12/04 13:02:08;;;;;;;1.03;0.93;;;;;;;;;;5074630;28;20575;-56
2020/12/04 13:04:34;;;;;;;1.27;0.80;;;;;;;;;;5070541;28;20747;-56
2020/12/04 13:07:00;;;;;;;0.87;0.80;;;;;;;;;;5071795;28;20177;-56
2020/12/04 13:09:26;;;;;;;2.47;1.20;;;;;;;;;;5091308;28;20230;-57
2020/12/04 13:11:52;;;;;;;0.70;0.70;;;;;;;;;;5085670;28;20550;-56
2020/12/04 13:14:19;;;;;;;1.93;1.00;;;;;;;;;;5070715;28;20222;-57
2020/12/04 13:16:46;;;;;;;2.40;1.23;;;;;;;;;;5070920;28;20184;-56
2020/12/04 13:19:17;;;;;;;0.97;0.80;;;;;;;;;;5063595;28;20196;-56
2020/12/04 13:24:21;;;;;;;0.83;0.83;;;;;;;;;;5070516;28;20691;-56
2020/12/04 13:26:47;;;;;;;1.00;0.77;;;;;;;;;;5064629;28;20180;-56
2020/12/04 13:29:14;;;;;;;0.90;0.80;;;;;;;;;;5064973;28;20637;-56
2020/12/04 13:31:40;;;;;;;7.07;1.33;;;;;;;;;;5067733;28;20544;-59
2020/12/04 13:34:06;;;;;;;1.00;0.90;;;;;;;;;;5048875;28;20169;-57
2020/12/04 13:36:32;;;;;;;2.07;1.03;;;;;;;;;;5067850;28;20176;-55
2020/12/04 13:38:58;;;;;;;1.20;0.93;;;;;;;;;;5070818;28;20517;-56
2020/12/04 13:41:24;;;;;;;0.90;0.90;;;;;;;;;;5070355;28;20172;-56
2020/12/04 13:43:50;;;;;;;1.10;1.00;;;;;;;;;;5050779;28;20267;-56
2020/12/04 13:46:17;;;;;;;2.30;0.80;;;;;;;;;;5067816;28;20187;-56
2020/12/04 13:48:43;;;;;;;1.20;1.10;;;;;;;;;;5070034;28;20191;-56
2020/12/04 13:51:09;;;;;;;1.77;0.97;;;;;;;;;;5064386;28;20180;-56
2020/12/04 13:53:35;;;;;;;1.43;0.70;;;;;;;;;;5034088;28;20283;-57
2020/12/04 13:56:01;;;;;;;0.70;0.70;;;;;;;;;;5048493;28;20562;-57
2020/12/04 13:58:27;;;;;;;3.03;0.80;;;;;;;;;;5062462;28;20184;-56
2020/12/04 14:00:55;;;;;;;0.97;0.83;;;;;;;;;;5067837;28;20207;-57
2020/12/04 14:03:21;;;;;;;1.00;0.60;;;;;;;;;;5097717;28;20182;-57
2020/12/04 14:05:51;;;;;;;2.00;0.87;;;;;;;;;;5100795;28;20194;-56
2020/12/04 14:08:17;;;;;;;1.67;1.00;;;;;;;;;;5092603;28;20253;-56
2020/12/04 14:10:43;;;;;;;0.70;0.70;;;;;;;;;;5106091;28;20176;-56
2020/12/04 14:13:09;;;;;;;0.73;0.73;;;;;;;;;;5095637;28;20176;-57
2020/12/04 14:15:35;;;;;;;0.70;0.70;;;;;;;;;;5093987;28;20188;-57
2020/12/04 14:18:01;;;;;;;0.60;0.60;;;;;;;;;;5113517;28;20190;-56
2020/12/04 14:20:27;;;;;;;1.30;0.60;;;;;;;;;;5103471;28;20190;-56
2020/12/04 14:22:53;;;;;;;1.40;0.77;;;;;;;;;;5094951;28;20549;-56
2020/12/04 14:25:19;;;;;;;1.27;0.83;;;;;;;;;;5097362;28;20203;-56
2020/12/04 14:27:45;;;;;;;0.53;0.53;;;;;;;;;;5098416;28;20190;-56
2020/12/04 14:30:12;;;;;;;0.70;0.60;;;;;;;;;;5108784;28;20708;-56
2020/12/04 14:32:38;;;;;;;1.00;0.60;;;;;;;;;;5105368;28;20712;-56
2020/12/04 14:35:04;;;;;;;1.00;0.80;;;;;;;;;;5095655;28;20198;-58
2020/12/04 14:37:30;;;;;;;2.07;0.53;;;;;;;;;;5101610;28;20999;-56
2020/12/04 14:40:26;;;;;;;3.07;1.10;;;;;;;;;;5099838;28;20187;-56
2020/12/04 14:42:42;;;;;;;1.50;1.00;;;;;;;;;;5091619;28;20200;-56
2020/12/04 14:45:08;;;;;;;0.60;0.60;;;;;;;;;;5108751;28;20570;-56
2020/12/04 14:47:34;;;;;;;1.20;0.70;;;;;;;;;;5102389;28;20262;-57
2020/12/04 14:50:00;;;;;;;1.40;0.93;;;;;;;;;;5112424;28;20179;-56
2020/12/04 14:52:26;;;;;;;0.90;0.67;;;;;;;;;;5105228;28;20191;-56